Time;durP1;ratioP1;P1;durP2;ratioP2;P2;SDS_P1;SDS_P2;PMS_P1;PMS_P2;Temp;Humidity;BMP_temperature;BMP_pressure;BME280_temperature;BME280_humidity;BME280_pressure;Samples;Min_cycle;Max_cycle;Signal;HPM_P1;HPM_P2
2022/05/25 00:01:45;;;;;;;2.35;0.60;;;12.50;99.90;;;;;;5103837;28;20032;-66
2022/05/25 00:04:11;;;;;;;3.95;0.80;;;12.50;99.90;;;;;;5085952;28;20039;-68
2022/05/25 00:06:37;;;;;;;7.82;0.90;;;12.50;99.90;;;;;;5102517;28;20039;-68
2022/05/25 00:09:03;;;;;;;7.40;0.75;;;12.50;99.90;;;;;;5104118;28;20318;-68
2022/05/25 00:11:29;;;;;;;8.30;1.00;;;12.50;99.90;;;;;;5103921;28;20039;-67
2022/05/25 00:13:54;;;;;;;6.22;0.85;;;12.50;99.90;;;;;;5103691;28;20227;-67
2022/05/25 00:16:20;;;;;;;8.68;1.20;;;12.50;99.90;;;;;;5103644;28;20016;-67
2022/05/25 00:21:31;;;;;;;7.60;1.02;;;12.50;99.90;;;;;;5102580;28;20023;-68
2022/05/25 00:23:58;;;;;;;7.97;1.27;;;12.50;99.90;;;;;;5102644;28;20024;-67
2022/05/25 00:26:24;;;;;;;4.70;0.85;;;12.50;99.90;;;;;;5102630;28;20016;-67
2022/05/25 00:28:50;;;;;;;7.93;1.23;;;12.50;99.90;;;;;;5103741;28;20020;-68
2022/05/25 00:31:16;;;;;;;9.35;1.38;;;12.50;99.90;;;;;;5107582;28;20061;-68
2022/05/25 00:33:42;;;;;;;6.95;1.05;;;12.50;99.90;;;;;;5106390;28;20249;-67
2022/05/25 00:36:08;;;;;;;5.55;0.90;;;12.50;99.90;;;;;;5107259;28;20028;-68
2022/05/25 00:38:33;;;;;;;3.22;0.63;;;12.50;99.90;;;;;;5107648;28;20050;-68
2022/05/25 00:40:59;;;;;;;4.88;1.05;;;12.50;99.90;;;;;;5107508;28;20114;-67
2022/05/25 00:43:25;;;;;;;7.03;0.95;;;12.50;99.90;;;;;;5106123;28;20104;-68
2022/05/25 00:45:56;;;;;;;5.03;0.90;;;12.50;99.90;;;;;;5106866;28;20046;-68
2022/05/25 00:48:24;;;;;;;;;;;12.50;99.90;;;;;;5107972;28;20024;-68
2022/05/25 00:53:37;;;;;;;6.78;1.08;;;12.50;99.90;;;;;;5106164;28;20020;-68
2022/05/25 00:56:06;;;;;;;6.60;0.90;;;12.40;99.90;;;;;;5107331;28;20069;-68
2022/05/25 00:58:33;;;;;;;8.15;1.98;;;12.50;99.90;;;;;;5104798;28;20016;-68
2022/05/25 01:00:58;;;;;;;8.25;1.05;;;12.50;99.90;;;;;;5105936;28;20271;-65
2022/05/25 01:03:25;;;;;;;7.65;1.20;;;12.50;99.90;;;;;;5105686;28;20035;-68
2022/05/25 01:06:29;;;;;;;5.05;1.20;;;12.50;99.90;;;;;;5106764;28;20087;-66
2022/05/25 01:09:20;;;;;;;7.10;1.67;;;12.50;99.90;;;;;;5106261;28;20085;-66
2022/05/25 01:12:14;;;;;;;6.65;1.13;;;12.50;99.90;;;;;;5106313;28;20039;-67
2022/05/25 01:15:20;;;;;;;12.90;1.77;;;12.50;99.90;;;;;;5105745;28;20020;-68
2022/05/25 01:18:13;;;;;;;8.75;1.20;;;12.50;99.90;;;;;;5080479;28;20073;-68
2022/05/25 01:20:47;;;;;;;5.43;1.00;;;12.60;99.90;;;;;;5092889;28;20087;-67
2022/05/25 01:23:39;;;;;;;6.70;1.13;;;12.50;99.90;;;;;;5088947;28;20023;-67
2022/05/25 01:26:43;;;;;;;7.10;1.00;;;12.60;99.90;;;;;;5105632;28;20306;-67
2022/05/25 01:29:40;;;;;;;8.90;1.00;;;12.60;99.90;;;;;;5105780;28;20024;-67
2022/05/25 01:32:14;;;;;;;10.68;1.38;;;12.70;99.90;;;;;;5105334;28;20299;-67
2022/05/25 01:35:07;;;;;;;8.38;1.15;;;12.70;99.90;;;;;;5106383;28;20023;-66
2022/05/25 01:37:57;;;;;;;3.92;0.75;;;12.70;99.90;;;;;;5105703;28;20024;-66
2022/05/25 01:40:45;;;;;;;7.60;1.33;;;12.70;99.90;;;;;;5105283;28;20016;-66
2022/05/25 01:43:17;;;;;;;9.38;1.20;;;12.70;99.90;;;;;;5105431;28;20195;-66
2022/05/25 01:45:51;;;;;;;6.75;0.90;;;12.60;99.90;;;;;;5104785;28;20023;-67
2022/05/25 01:48:20;;;;;;;13.85;1.20;;;12.60;99.90;;;;;;5106175;28;20338;-66
2022/05/25 01:51:03;;;;;;;6.75;0.90;;;12.60;99.90;;;;;;5105159;28;20024;-66
2022/05/25 01:53:39;;;;;;;10.65;1.10;;;12.60;99.90;;;;;;5104945;28;20207;-66
2022/05/25 01:56:08;;;;;;;10.23;1.23;;;12.50;99.90;;;;;;5106152;28;20035;-67
2022/05/25 01:58:38;;;;;;;12.00;1.17;;;12.50;99.90;;;;;;5104948;28;20024;-67
2022/05/25 02:01:06;;;;;;;7.05;0.85;;;12.40;99.90;;;;;;5105810;28;20024;-66
2022/05/25 02:06:57;;;;;;;8.48;1.00;;;12.50;99.90;;;;;;5104712;28;20020;-66
2022/05/25 02:09:44;;;;;;;6.07;0.93;;;12.40;99.90;;;;;;5076839;28;20315;-67
2022/05/25 02:12:38;;;;;;;7.28;1.10;;;12.30;99.90;;;;;;5104730;28;20211;-66
2022/05/25 02:15:36;;;;;;;10.57;1.08;;;12.30;99.90;;;;;;5104494;28;20178;-66
2022/05/25 02:18:11;;;;;;;8.98;1.17;;;12.30;99.90;;;;;;5092101;28;20091;-66
2022/05/25 02:20:51;;;;;;;5.53;1.10;;;12.30;99.90;;;;;;5105655;28;20016;-66
2022/05/25 02:23:30;;;;;;;7.65;1.10;;;12.30;99.90;;;;;;5105564;28;20099;-67
2022/05/25 02:26:09;;;;;;;5.75;1.20;;;12.20;99.90;;;;;;5105317;28;20019;-67
2022/05/25 02:28:43;;;;;;;8.98;1.27;;;12.30;99.90;;;;;;5104468;28;20215;-66
2022/05/25 02:31:15;;;;;;;10.98;1.23;;;12.30;99.90;;;;;;5104075;28;20087;-67
2022/05/25 02:33:44;;;;;;;6.95;1.30;;;12.30;99.90;;;;;;5104451;28;20028;-67
2022/05/25 02:36:12;;;;;;;7.07;1.08;;;12.20;99.90;;;;;;5104868;28;20263;-67
2022/05/25 02:38:40;;;;;;;10.55;1.25;;;12.20;99.90;;;;;;5105373;28;20028;-67
2022/05/25 02:41:27;;;;;;;10.18;1.35;;;12.00;99.90;;;;;;5105289;28;20195;-67
2022/05/25 02:43:53;;;;;;;8.95;1.20;;;12.00;99.90;;;;;;5104126;28;20043;-67
2022/05/25 02:46:19;;;;;;;6.93;1.10;;;11.90;99.90;;;;;;5104501;28;20050;-66
2022/05/25 02:48:44;;;;;;;8.75;1.67;;;11.80;99.90;;;;;;5103787;28;20204;-66
2022/05/25 02:51:10;;;;;;;6.03;1.20;;;11.80;99.90;;;;;;5103399;28;20065;-67
2022/05/25 02:53:35;;;;;;;3.95;1.05;;;11.90;99.90;;;;;;5103484;28;20023;-67
2022/05/25 02:56:02;;;;;;;9.25;1.10;;;11.90;99.90;;;;;;5104781;28;20215;-67
2022/05/25 02:58:28;;;;;;;11.25;1.25;;;11.90;99.90;;;;;;5103463;28;20319;-67
2022/05/25 03:00:55;;;;;;;7.65;1.23;;;11.90;99.90;;;;;;5103234;28;20062;-67
2022/05/25 03:03:21;;;;;;;4.38;1.00;;;11.90;99.90;;;;;;5104431;28;20244;-67
2022/05/25 03:05:47;;;;;;;8.32;0.98;;;11.90;99.90;;;;;;5103686;28;20155;-67
2022/05/25 03:08:13;;;;;;;7.05;1.10;;;11.80;99.90;;;;;;5104431;28;20238;-67
2022/05/25 03:10:39;;;;;;;8.95;1.33;;;11.80;99.90;;;;;;5104755;28;20058;-67
2022/05/25 03:13:06;;;;;;;10.75;1.33;;;11.70;99.90;;;;;;5104203;28;20031;-67
2022/05/25 03:15:32;;;;;;;4.85;1.00;;;11.70;99.90;;;;;;5104012;28;20024;-67
2022/05/25 03:17:58;;;;;;;7.93;1.30;;;11.70;99.90;;;;;;5104540;28;20061;-67
2022/05/25 03:20:23;;;;;;;10.88;1.80;;;11.60;99.90;;;;;;5104078;28;20023;-67
2022/05/25 03:22:49;;;;;;;11.23;1.17;;;11.60;99.90;;;;;;5103087;28;20044;-67
2022/05/25 03:25:15;;;;;;;13.05;1.35;;;11.60;99.90;;;;;;5104218;28;20022;-66
2022/05/25 03:27:43;;;;;;;5.95;1.98;;;11.70;99.90;;;;;;5103241;28;20030;-67
2022/05/25 03:30:10;;;;;;;7.13;1.30;;;11.80;99.90;;;;;;5103986;28;20291;-66
2022/05/25 03:32:36;;;;;;;3.42;0.90;;;11.90;99.90;;;;;;5102872;28;20024;-67
2022/05/25 03:35:02;;;;;;;7.25;1.35;;;11.90;99.90;;;;;;5103480;28;20032;-66
2022/05/25 03:37:28;;;;;;;8.52;1.23;;;11.80;99.90;;;;;;5104184;28;20059;-67
2022/05/25 03:39:54;;;;;;;10.68;1.23;;;11.80;99.90;;;;;;5104005;28;20024;-67
2022/05/25 03:42:20;;;;;;;6.40;1.10;;;11.70;99.90;;;;;;5104132;28;20024;-66
2022/05/25 03:44:46;;;;;;;4.50;1.10;;;11.70;99.90;;;;;;5103936;28;20305;-67
2022/05/25 03:47:12;;;;;;;8.80;1.48;;;11.70;99.90;;;;;;5102008;28;20048;-66
2022/05/25 03:49:38;;;;;;;9.30;1.70;;;11.70;99.90;;;;;;5103828;28;20020;-67
2022/05/25 03:52:04;;;;;;;9.90;1.80;;;11.60;99.90;;;;;;5103823;28;20078;-67
2022/05/25 03:54:32;;;;;;;7.40;1.15;;;11.70;99.90;;;;;;5103955;28;20058;-66
2022/05/25 03:56:58;;;;;;;8.15;1.00;;;11.70;99.90;;;;;;5103892;28;20214;-66
2022/05/25 03:59:24;;;;;;;7.65;1.20;;;11.70;99.90;;;;;;5102454;28;20338;-66
2022/05/25 04:01:50;;;;;;;8.68;1.13;;;11.70;99.90;;;;;;5102436;28;20211;-66
2022/05/25 04:04:16;;;;;;;8.23;1.20;;;11.70;99.90;;;;;;5107441;28;20024;-67
2022/05/25 04:06:41;;;;;;;10.65;1.30;;;11.70;99.90;;;;;;5107717;28;20051;-67
2022/05/25 04:09:10;;;;;;;4.25;1.30;;;11.80;99.90;;;;;;5108264;28;20069;-66
2022/05/25 04:11:37;;;;;;;9.88;1.17;;;11.80;99.90;;;;;;5107934;28;20031;-66
2022/05/25 04:14:02;;;;;;;10.20;1.38;;;11.80;99.90;;;;;;5106669;28;20093;-66
2022/05/25 04:16:29;;;;;;;7.82;1.25;;;11.80;99.90;;;;;;5107253;28;20024;-66
2022/05/25 04:18:55;;;;;;;11.48;1.95;;;11.80;99.90;;;;;;5107844;28;20345;-66
2022/05/25 04:21:21;;;;;;;12.07;1.63;;;11.90;99.90;;;;;;5107743;28;20083;-66
2022/05/25 04:23:47;;;;;;;8.68;1.67;;;11.90;99.90;;;;;;5107512;28;20031;-67
2022/05/25 04:26:13;;;;;;;8.98;1.55;;;11.90;99.90;;;;;;5106575;28;20038;-67
2022/05/25 04:28:38;;;;;;;8.85;1.40;;;11.90;99.90;;;;;;5106318;28;20031;-67
2022/05/25 04:31:04;;;;;;;12.32;1.48;;;11.80;99.90;;;;;;5107465;28;20079;-66
2022/05/25 04:33:30;;;;;;;5.70;1.10;;;11.80;99.90;;;;;;5107543;28;20024;-67
2022/05/25 04:35:57;;;;;;;8.32;0.85;;;11.90;99.90;;;;;;5105989;28;20077;-66
2022/05/25 04:38:23;;;;;;;11.88;1.23;;;11.90;99.90;;;;;;5107285;28;20059;-66
2022/05/25 04:40:49;;;;;;;14.93;2.28;;;11.90;99.90;;;;;;5107411;28;20176;-67
2022/05/25 04:43:18;;;;;;;8.23;1.33;;;11.90;99.90;;;;;;5106148;28;20023;-66
2022/05/25 04:45:47;;;;;;;6.85;1.33;;;12.00;99.90;;;;;;5105792;28;20020;-66
2022/05/25 04:48:15;;;;;;;12.95;2.00;;;12.00;99.90;;;;;;5085622;28;20031;-66
2022/05/25 04:50:43;;;;;;;13.73;2.33;;;12.10;99.90;;;;;;5085755;28;20021;-66
2022/05/25 04:53:12;;;;;;;13.50;1.75;;;12.20;99.90;;;;;;5087001;28;20032;-66
2022/05/25 04:58:35;;;;;;;5.30;1.10;;;12.20;99.90;;;;;;5085224;28;20027;-67
2022/05/25 05:01:02;;;;;;;9.13;1.40;;;12.20;99.90;;;;;;5083972;28;20087;-68
2022/05/25 05:03:28;;;;;;;8.25;1.27;;;12.20;99.90;;;;;;5085874;28;20016;-67
2022/05/25 05:05:55;;;;;;;8.35;1.20;;;12.20;99.90;;;;;;5084547;28;20028;-66
2022/05/25 05:08:21;;;;;;;5.30;1.55;;;12.20;99.90;;;;;;5086815;28;20092;-66
2022/05/25 05:10:47;;;;;;;12.23;1.65;;;12.10;99.90;;;;;;5085367;28;20249;-66
2022/05/25 05:13:13;;;;;;;6.55;1.17;;;12.20;99.90;;;;;;5085508;28;20207;-66
2022/05/25 05:15:43;;;;;;;10.73;2.15;;;12.20;99.90;;;;;;5084841;28;20081;-67
2022/05/25 05:18:09;;;;;;;5.88;1.35;;;12.20;99.90;;;;;;5085376;28;20027;-67
2022/05/25 05:20:35;;;;;;;11.45;1.40;;;12.20;99.90;;;;;;5086494;28;20283;-67
2022/05/25 05:23:02;;;;;;;8.32;1.52;;;12.30;99.90;;;;;;5086122;28;20087;-67
2022/05/25 05:25:28;;;;;;;13.10;1.30;;;12.40;99.90;;;;;;5086488;28;20023;-67
2022/05/25 05:27:53;;;;;;;10.57;1.20;;;12.40;99.90;;;;;;5102212;28;20214;-67
2022/05/25 05:30:22;;;;;;;6.32;1.10;;;12.40;99.90;;;;;;5088546;28;20028;-67
2022/05/25 05:32:48;;;;;;;9.63;1.50;;;12.40;99.90;;;;;;5088609;28;20020;-67
2022/05/25 05:35:14;;;;;;;8.95;1.38;;;12.40;99.90;;;;;;5104848;28;20032;-67
2022/05/25 05:37:46;;;;;;;11.68;1.58;;;12.40;99.90;;;;;;5106145;28;20323;-67
2022/05/25 05:40:14;;;;;;;9.15;1.30;;;12.40;99.90;;;;;;5088475;28;20100;-67
2022/05/25 05:42:41;;;;;;;11.35;1.20;;;12.40;99.90;;;;;;5087855;28;20099;-67
2022/05/25 05:45:14;;;;;;;23.02;2.25;;;12.50;99.90;;;;;;5106038;28;20171;-67
2022/05/25 05:47:46;;;;;;;11.32;2.17;;;12.50;99.90;;;;;;5104200;28;20356;-67
2022/05/25 05:50:12;;;;;;;12.88;1.40;;;12.60;99.90;;;;;;5106362;28;20028;-67
2022/05/25 05:52:38;;;;;;;9.27;1.52;;;12.70;99.90;;;;;;5105675;28;20016;-67
2022/05/25 05:55:05;;;;;;;9.77;1.35;;;12.70;99.90;;;;;;5105006;28;20085;-67
2022/05/25 05:57:34;;;;;;;13.45;2.08;;;12.70;99.90;;;;;;5104666;28;20024;-67
2022/05/25 06:00:00;;;;;;;7.28;1.13;;;12.80;99.90;;;;;;5104586;28;20051;-67
2022/05/25 06:02:25;;;;;;;9.68;1.75;;;12.80;99.90;;;;;;5103507;28;20027;-67
2022/05/25 06:04:51;;;;;;;9.45;1.35;;;12.80;99.90;;;;;;5105479;28;20349;-67
2022/05/25 06:07:17;;;;;;;8.35;1.30;;;12.80;99.90;;;;;;5105190;28;20032;-68
2022/05/25 06:09:42;;;;;;;11.15;1.77;;;12.80;99.90;;;;;;5105871;28;20016;-66
2022/05/25 06:12:08;;;;;;;8.25;1.40;;;12.90;99.90;;;;;;5105606;28;20020;-67
2022/05/25 06:14:34;;;;;;;8.75;1.00;;;12.90;99.90;;;;;;5104174;28;20023;-67
2022/05/25 06:19:45;;;;;;;9.70;1.30;;;13.00;99.90;;;;;;5075385;28;20219;-68
2022/05/25 06:22:15;;;;;;;5.82;1.15;;;13.00;99.90;;;;;;5104625;28;20024;-67
2022/05/25 06:24:44;;;;;;;12.43;1.92;;;13.00;99.90;;;;;;5105337;28;20043;-69
2022/05/25 06:27:12;;;;;;;10.57;1.27;;;13.00;99.90;;;;;;5104124;28;20028;-68
2022/05/25 06:29:39;;;;;;;12.00;1.23;;;13.10;99.90;;;;;;5104055;28;20019;-68
2022/05/25 06:32:07;;;;;;;8.07;1.30;;;13.00;99.90;;;;;;5104024;28;20020;-68
2022/05/25 06:34:34;;;;;;;8.10;0.93;;;13.10;99.90;;;;;;5105182;28;20019;-68
2022/05/25 06:37:00;;;;;;;5.10;0.98;;;13.10;99.90;;;;;;5104870;28;20038;-67
2022/05/25 06:39:27;;;;;;;7.93;1.67;;;13.00;99.90;;;;;;5104209;28;20192;-68
2022/05/25 06:41:53;;;;;;;10.63;1.27;;;13.00;99.90;;;;;;5103851;28;20034;-69
2022/05/25 06:44:19;;;;;;;9.57;1.27;;;13.00;99.90;;;;;;5103770;28;20024;-69
2022/05/25 06:46:45;;;;;;;15.50;1.40;;;13.10;99.90;;;;;;5102224;28;20247;-69
2022/05/25 06:49:11;;;;;;;6.47;1.10;;;13.20;99.90;;;;;;5098531;28;20032;-67
2022/05/25 06:51:37;;;;;;;5.30;0.75;;;13.20;99.90;;;;;;5086736;28;20047;-69
2022/05/25 06:54:04;;;;;;;8.02;1.80;;;13.10;99.90;;;;;;5102734;28;20024;-69
2022/05/25 06:56:30;;;;;;;8.25;1.20;;;13.20;99.90;;;;;;5099920;28;20319;-68
2022/05/25 06:58:57;;;;;;;11.15;1.83;;;13.20;99.90;;;;;;5098260;28;20021;-68
2022/05/25 07:01:23;;;;;;;11.20;1.92;;;13.30;99.90;;;;;;5093466;28;20016;-68
2022/05/25 07:03:52;;;;;;;8.65;1.10;;;13.30;99.90;;;;;;5102008;28;20043;-68
2022/05/25 07:06:19;;;;;;;10.15;1.63;;;13.40;99.90;;;;;;5100833;28;20032;-68
2022/05/25 07:08:45;;;;;;;6.72;1.25;;;13.40;99.90;;;;;;5095332;28;20040;-68
2022/05/25 07:11:12;;;;;;;5.45;0.82;;;13.50;99.90;;;;;;5066135;28;20021;-68
2022/05/25 07:13:39;;;;;;;9.70;0.88;;;13.50;99.90;;;;;;5086189;28;20025;-68
2022/05/25 07:16:07;;;;;;;4.50;1.10;;;13.50;99.90;;;;;;5083260;28;20023;-68
2022/05/25 07:18:34;;;;;;;7.88;1.17;;;13.60;99.90;;;;;;5091017;28;20027;-69
2022/05/25 07:21:06;;;;;;;6.40;1.13;;;13.70;99.90;;;;;;5094644;28;20043;-68
2022/05/25 07:23:34;;;;;;;6.32;1.00;;;13.70;99.90;;;;;;5101374;28;20024;-67
2022/05/25 07:25:59;;;;;;;6.40;1.02;;;13.80;99.90;;;;;;5091341;28;20211;-71
2022/05/25 07:28:25;;;;;;;13.68;1.33;;;13.80;99.90;;;;;;5084683;28;20048;-68
2022/05/25 07:30:54;;;;;;;9.48;1.45;;;13.80;99.90;;;;;;5088613;28;20079;-65
2022/05/25 07:33:20;;;;;;;5.47;0.98;;;14.00;99.90;;;;;;5103049;28;20047;-69
2022/05/25 07:35:46;;;;;;;8.60;1.00;;;14.10;99.70;;;;;;5102990;28;20266;-67
2022/05/25 07:38:12;;;;;;;5.65;0.93;;;14.10;99.90;;;;;;5103437;28;20219;-70
2022/05/25 07:40:41;;;;;;;4.20;0.80;;;14.10;99.90;;;;;;5103625;28;20059;-68
2022/05/25 07:43:13;;;;;;;8.63;0.90;;;14.10;99.90;;;;;;5103278;28;20024;-67
2022/05/25 07:45:38;;;;;;;;;;;14.10;99.90;;;;;;5091768;28;20083;-68
2022/05/25 07:48:05;;;;;;;5.20;1.13;;;14.10;99.90;;;;;;5102039;28;20138;-69
2022/05/25 07:50:32;;;;;;;5.00;1.05;;;14.10;99.90;;;;;;5096649;28;20220;-68
2022/05/25 07:52:59;;;;;;;8.02;1.15;;;14.00;99.90;;;;;;5089618;28;20023;-69
2022/05/25 07:55:25;;;;;;;6.00;1.10;;;13.90;99.90;;;;;;5098095;28;20103;-68
2022/05/25 07:57:51;;;;;;;3.35;1.02;;;13.90;99.90;;;;;;5085996;28;20311;-68
2022/05/25 08:00:25;;;;;;;5.72;1.20;;;14.00;99.90;;;;;;5092440;28;20031;-70
2022/05/25 08:05:47;;;;;;;1.92;0.65;;;14.30;99.90;;;;;;5096143;28;20070;-67
2022/05/25 08:08:23;;;;;;;3.65;0.55;;;14.40;99.90;;;;;;5100794;28;20251;-68
2022/05/25 08:10:57;;;;;;;1.55;0.60;;;14.40;99.90;;;;;;5097125;28;20324;-68
2022/05/25 08:13:24;;;;;;;3.10;0.43;;;14.50;99.90;;;;;;5100913;28;20024;-68
2022/05/25 08:15:49;;;;;;;4.13;0.70;;;14.40;99.90;;;;;;5100942;28;20024;-68
2022/05/25 08:18:17;;;;;;;6.60;1.10;;;14.30;99.90;;;;;;5101154;28;20028;-69
2022/05/25 08:20:44;;;;;;;2.70;0.63;;;14.20;99.90;;;;;;5102016;28;20035;-69
2022/05/25 08:23:13;;;;;;;2.45;0.57;;;14.20;99.90;;;;;;5101376;28;20080;-68
2022/05/25 08:25:39;;;;;;;2.95;0.47;;;14.20;99.90;;;;;;5102840;28;20362;-68
2022/05/25 08:28:05;;;;;;;1.42;0.63;;;14.20;99.90;;;;;;5102220;28;20126;-70
2022/05/25 08:30:32;;;;;;;1.10;0.63;;;14.10;99.90;;;;;;5101509;28;20031;-71
2022/05/25 08:32:58;;;;;;;4.53;0.57;;;14.30;99.90;;;;;;5084373;28;20088;-69
2022/05/25 08:35:27;;;;;;;8.70;0.80;;;14.40;99.90;;;;;;5102011;28;20295;-69
2022/05/25 08:37:54;;;;;;;3.25;0.50;;;14.40;99.90;;;;;;5102173;28;20152;-70
2022/05/25 08:40:21;;;;;;;1.40;0.40;;;14.30;99.90;;;;;;5096239;28;20017;-69
2022/05/25 08:42:56;;;;;;;2.25;0.60;;;14.30;99.90;;;;;;5081000;28;20020;-69
2022/05/25 08:45:33;;;;;;;1.88;0.60;;;14.40;99.90;;;;;;5088191;28;20028;-68
2022/05/25 08:48:01;;;;;;;4.15;0.93;;;14.60;99.90;;;;;;5083812;28;20052;-69
2022/05/25 08:50:29;;;;;;;3.90;0.60;;;14.70;99.90;;;;;;5102935;28;20036;-68
2022/05/25 08:52:57;;;;;;;1.02;0.75;;;14.80;99.90;;;;;;5094525;28;20030;-68
2022/05/25 08:56:02;;;;;;;2.53;0.45;;;14.90;99.90;;;;;;5085077;28;20063;-68
2022/05/25 08:58:38;;;;;;;2.20;0.60;;;14.90;99.90;;;;;;5073842;28;20084;-70
2022/05/25 09:01:06;;;;;;;3.05;0.35;;;15.00;99.90;;;;;;5052444;28;20303;-69
2022/05/25 09:04:09;;;;;;;2.63;0.60;;;15.00;99.90;;;;;;5090532;28;20081;-69
2022/05/25 09:07:09;;;;;;;2.03;0.50;;;15.10;99.90;;;;;;5090378;28;20271;-69
2022/05/25 09:09:39;;;;;;;2.85;0.30;;;15.20;99.90;;;;;;5070717;28;20034;-68
2022/05/25 09:12:22;;;;;;;0.40;0.20;;;15.30;99.90;;;;;;5085305;28;20288;-68
2022/05/25 09:14:53;;;;;;;2.80;0.40;;;15.30;99.90;;;;;;5069778;28;20219;-67
2022/05/25 09:17:27;;;;;;;0.40;0.32;;;15.30;99.90;;;;;;5086476;28;20077;-69
2022/05/25 09:19:53;;;;;;;2.08;0.55;;;15.10;99.90;;;;;;5088345;28;20035;-69
2022/05/25 09:22:23;;;;;;;0.50;0.30;;;14.90;99.90;;;;;;5091051;28;20016;-69
2022/05/25 09:24:50;;;;;;;2.38;0.35;;;14.90;99.90;;;;;;5103389;28;20242;-68
2022/05/25 09:27:18;;;;;;;2.97;1.02;;;14.90;99.90;;;;;;5085694;28;20345;-68
2022/05/25 09:29:44;;;;;;;0.73;0.28;;;15.00;99.90;;;;;;5104365;28;20032;-69
2022/05/25 09:32:50;;;;;;;0.63;0.40;;;15.00;99.90;;;;;;5103916;28;20023;-70
2022/05/25 09:35:25;;;;;;;1.30;0.40;;;15.00;99.90;;;;;;5101402;28;20034;-69
2022/05/25 09:38:04;;;;;;;2.47;0.50;;;15.00;99.90;;;;;;5087339;28;20034;-69
2022/05/25 09:40:44;;;;;;;1.40;0.50;;;15.10;99.90;;;;;;5104731;28;20315;-67
2022/05/25 09:43:13;;;;;;;1.33;0.40;;;15.00;99.90;;;;;;5097157;28;20016;-68
2022/05/25 09:45:43;;;;;;;2.25;0.50;;;15.00;99.90;;;;;;5077569;28;20378;-71
2022/05/25 09:48:32;;;;;;;2.15;0.50;;;15.00;99.90;;;;;;5097331;28;20095;-69
2022/05/25 09:51:15;;;;;;;2.80;0.88;;;15.00;99.90;;;;;;5099672;28;20039;-68
2022/05/25 09:54:04;;;;;;;1.30;0.80;;;14.90;99.90;;;;;;5101214;28;20020;-71
2022/05/25 09:56:39;;;;;;;1.15;1.05;;;14.80;99.90;;;;;;5104191;28;20020;-69
2022/05/25 09:59:08;;;;;;;1.08;0.80;;;14.60;99.90;;;;;;5101705;28;20303;-70
2022/05/25 10:01:44;;;;;;;0.75;0.45;;;14.50;99.90;;;;;;5102555;28;20386;-70
2022/05/25 10:04:17;;;;;;;1.05;0.63;;;14.40;99.90;;;;;;5102943;28;20016;-71
2022/05/25 10:06:52;;;;;;;1.02;0.40;;;14.50;99.90;;;;;;5091965;28;20028;-68
2022/05/25 10:09:28;;;;;;;1.05;0.50;;;14.50;99.90;;;;;;5095827;28;20026;-70
2022/05/25 10:11:58;;;;;;;2.60;0.60;;;14.60;99.90;;;;;;5103369;28;20023;-70
2022/05/25 10:14:39;;;;;;;2.40;0.82;;;14.60;99.90;;;;;;5103904;28;20028;-69
2022/05/25 10:17:15;;;;;;;3.80;0.70;;;14.60;99.90;;;;;;5097556;28;20289;-70
2022/05/25 10:19:48;;;;;;;5.28;0.50;;;14.80;99.90;;;;;;5103681;28;20028;-70
2022/05/25 10:22:44;;;;;;;1.70;0.60;;;15.00;99.90;;;;;;5102766;28;20044;-68
2022/05/25 10:25:35;;;;;;;2.22;0.68;;;15.20;99.90;;;;;;5084446;28;20032;-70
2022/05/25 10:28:03;;;;;;;2.78;0.98;;;15.10;99.90;;;;;;5086057;28;20035;-68
2022/05/25 10:36:48;;;;;;;3.40;1.10;;;15.60;99.90;;;;;;5100867;28;20019;-68
2022/05/25 10:39:39;;;;;;;3.55;0.75;;;15.60;99.90;;;;;;5104020;28;20032;-69
2022/05/25 10:42:24;;;;;;;7.20;1.80;;;15.60;99.90;;;;;;5087316;28;20028;-68
2022/05/25 10:45:10;;;;;;;9.95;1.40;;;15.70;99.90;;;;;;5098671;28;20042;-68
2022/05/25 10:48:07;;;;;;;9.30;1.27;;;15.70;99.90;;;;;;5104366;28;20073;-68
2022/05/25 10:50:55;;;;;;;7.03;1.23;;;15.80;99.90;;;;;;5102835;28;20051;-70
2022/05/25 10:53:44;;;;;;;10.35;1.15;;;15.90;99.90;;;;;;5094081;28;20032;-71
2022/05/25 10:56:36;;;;;;;5.90;1.23;;;16.00;99.90;;;;;;5100912;28;20043;-70
2022/05/25 10:59:21;;;;;;;;;;;15.80;99.90;;;;;;5088406;28;20048;-69
2022/05/25 11:02:13;;;;;;;14.60;2.05;;;15.70;99.90;;;;;;5098089;28;20094;-68
2022/05/25 11:05:19;;;;;;;9.98;1.33;;;15.80;99.90;;;;;;5089159;28;20345;-70
2022/05/25 11:07:45;;;;;;;8.73;1.40;;;16.00;99.90;;;;;;5087415;28;20036;-68
2022/05/25 11:10:50;;;;;;;11.93;1.73;;;16.00;99.90;;;;;;5092623;28;20034;-69
2022/05/25 11:13:48;;;;;;;9.90;1.80;;;15.90;99.90;;;;;;5072045;28;20016;-68
2022/05/25 11:16:27;;;;;;;19.20;3.40;;;15.80;99.90;;;;;;5086549;28;20031;-68
2022/05/25 11:19:24;;;;;;;13.85;2.60;;;15.70;99.90;;;;;;5100130;28;20083;-70
2022/05/25 11:22:14;;;;;;;9.43;2.10;;;15.80;99.90;;;;;;5103110;28;20026;-70
2022/05/25 11:25:07;;;;;;;8.52;2.05;;;15.90;99.90;;;;;;5100910;28;20032;-69
2022/05/25 11:28:00;;;;;;;12.18;2.20;;;16.10;99.90;;;;;;5115939;28;20035;-70
2022/05/25 11:31:06;;;;;;;11.90;2.25;;;16.10;99.90;;;;;;5102616;28;20046;-69
2022/05/25 11:34:03;;;;;;;11.38;1.90;;;16.10;99.90;;;;;;5092620;28;20026;-69
2022/05/25 11:37:08;;;;;;;12.30;2.30;;;16.10;99.90;;;;;;5096843;28;20023;-67
2022/05/25 11:40:14;;;;;;;16.55;3.40;;;16.30;99.90;;;;;;5056970;28;20020;-70
2022/05/25 11:42:56;;;;;;;11.85;2.05;;;16.50;99.90;;;;;;5061255;28;20051;-69
2022/05/25 11:45:56;;;;;;;11.55;2.00;;;16.50;99.90;;;;;;5084030;28;20025;-69
2022/05/25 11:48:54;;;;;;;14.20;2.38;;;16.60;99.90;;;;;;5097460;28;20056;-68
2022/05/25 11:51:24;;;;;;;16.35;3.03;;;16.40;99.90;;;;;;5081899;28;20027;-67
2022/05/25 11:54:30;;;;;;;19.10;3.13;;;16.30;99.90;;;;;;5081701;28;20066;-71
2022/05/25 11:57:19;;;;;;;20.25;3.60;;;16.20;99.90;;;;;;5093702;28;20035;-72
2022/05/25 12:00:01;;;;;;;21.10;3.00;;;16.20;99.90;;;;;;5086991;28;20323;-70
2022/05/25 12:02:48;;;;;;;23.52;3.30;;;16.20;99.90;;;;;;5082807;28;20034;-69
2022/05/25 12:05:54;;;;;;;18.95;2.95;;;16.30;99.90;;;;;;5081785;28;20216;-69
2022/05/25 12:08:49;;;;;;;16.50;2.85;;;16.30;99.90;;;;;;5082048;28;20401;-68
2022/05/25 12:11:44;;;;;;;22.38;2.90;;;16.30;99.90;;;;;;5100011;28;20342;-69
2022/05/25 12:14:49;;;;;;;21.88;3.63;;;16.40;99.90;;;;;;5086121;28;20246;-71
2022/05/25 12:17:45;;;;;;;16.45;3.28;;;16.50;99.90;;;;;;5082741;28;20197;-70
2022/05/25 12:20:14;;;;;;;17.40;2.67;;;16.90;99.90;;;;;;5082887;28;20036;-70
2022/05/25 12:22:52;;;;;;;17.65;2.80;;;17.20;99.90;;;;;;5090530;28;20249;-69
2022/05/25 12:25:19;;;;;;;16.83;3.00;;;17.30;99.90;;;;;;5104607;28;20073;-71
2022/05/25 12:27:49;;;;;;;16.05;2.55;;;17.20;99.90;;;;;;5110167;28;20036;-69
2022/05/25 12:30:28;;;;;;;14.68;2.90;;;17.10;99.90;;;;;;5088596;28;20311;-70
2022/05/25 12:32:54;;;;;;;20.23;2.30;;;16.90;99.90;;;;;;5105446;28;20027;-69
2022/05/25 12:35:22;;;;;;;19.83;2.63;;;17.00;99.90;;;;;;5105874;28;20240;-69
2022/05/25 12:37:51;;;;;;;16.27;2.90;;;17.20;99.90;;;;;;5099868;28;20200;-68
2022/05/25 12:40:40;;;;;;;17.10;3.67;;;17.30;99.90;;;;;;5094834;28;20324;-69
2022/05/25 12:43:22;;;;;;;22.92;3.97;;;17.20;99.90;;;;;;5091065;28;20054;-69
2022/05/25 12:48:52;;;;;;;17.52;3.03;;;17.30;99.90;;;;;;5089477;28;20044;-67
2022/05/25 12:51:40;;;;;;;29.60;4.15;;;17.20;99.90;;;;;;5101852;28;20024;-66
2022/05/25 12:54:30;;;;;;;21.60;3.90;;;17.00;99.90;;;;;;5084947;28;20032;-68
2022/05/25 12:56:57;;;;;;;19.30;2.95;;;17.00;99.90;;;;;;5084610;28;20084;-67
2022/05/25 12:59:41;;;;;;;20.95;3.63;;;17.10;99.90;;;;;;5084676;28;20024;-69
2022/05/25 13:02:29;;;;;;;22.65;3.42;;;17.20;99.90;;;;;;5084922;28;20313;-67
2022/05/25 13:04:59;;;;;;;15.55;2.53;;;17.40;99.90;;;;;;5084815;28;20031;-66
2022/05/25 13:07:44;;;;;;;18.38;2.63;;;17.50;99.80;;;;;;5083861;28;20024;-70
2022/05/25 13:10:19;;;;;;;15.52;3.40;;;17.70;99.40;;;;;;5084347;28;20059;-69
2022/05/25 13:12:49;;;;;;;14.80;2.40;;;17.80;99.70;;;;;;5084817;28;20019;-67
2022/05/25 13:15:36;;;;;;;19.80;2.90;;;17.60;98.80;;;;;;5089214;28;20036;-68
2022/05/25 13:18:02;;;;;;;11.02;2.45;;;17.30;99.60;;;;;;5085957;28;20021;-70
2022/05/25 13:21:00;;;;;;;12.48;2.25;;;17.30;99.80;;;;;;5103450;28;20023;-68
2022/05/25 13:24:06;;;;;;;14.40;2.53;;;17.40;99.60;;;;;;5104848;28;20024;-69
2022/05/25 13:26:48;;;;;;;18.63;1.95;;;17.80;98.50;;;;;;5104309;28;20026;-68
2022/05/25 13:29:36;;;;;;;10.75;1.52;;;18.20;98.30;;;;;;5104143;28;20046;-70
2022/05/25 13:32:23;;;;;;;12.23;2.15;;;18.10;97.20;;;;;;5105287;28;20266;-69
2022/05/25 13:34:49;;;;;;;7.25;1.33;;;18.00;97.60;;;;;;5105093;28;20032;-70
2022/05/25 13:37:15;;;;;;;10.25;1.52;;;18.00;97.60;;;;;;5104298;28;20019;-70
2022/05/25 13:39:42;;;;;;;10.32;1.38;;;18.20;97.50;;;;;;5103978;28;20050;-69
2022/05/25 13:42:12;;;;;;;12.55;2.35;;;18.30;96.80;;;;;;5105259;28;20027;-68
2022/05/25 13:45:00;;;;;;;10.63;1.83;;;18.30;96.90;;;;;;5104106;28;20050;-68
2022/05/25 13:47:27;;;;;;;16.90;2.90;;;18.60;96.80;;;;;;5103686;28;20056;-68